createdAt,value
2019-02-19T00:01:05.568Z,178.63
2019-02-19T00:03:36.872Z,171.00
2019-02-19T00:06:07.221Z,178.30
2019-02-19T00:08:37.978Z,179.30
2019-02-19T00:11:08.448Z,174.00
2019-02-19T00:13:38.685Z,173.70
2019-02-19T00:16:13.370Z,187.27
2019-02-19T00:18:43.358Z,182.10
2019-02-19T00:21:14.083Z,191.03
2019-02-19T00:23:44.346Z,187.13
2019-02-19T00:26:18.952Z,179.43
2019-02-19T00:28:49.304Z,180.70
2019-02-19T00:31:20.193Z,169.97
2019-02-19T00:33:50.464Z,193.33
2019-02-19T00:36:20.946Z,174.10
2019-02-19T00:38:51.218Z,174.67
2019-02-19T00:41:21.468Z,178.10
2019-02-19T00:43:51.910Z,170.70
2019-02-19T00:46:22.172Z,176.40
2019-02-19T00:48:52.662Z,189.33
2019-02-19T00:51:22.919Z,168.67
2019-02-19T00:53:53.419Z,184.83
2019-02-19T00:56:23.684Z,177.63
2019-02-19T00:58:54.168Z,176.03
2019-02-19T01:01:24.762Z,173.47
2019-02-19T01:03:56.155Z,179.30
2019-02-19T01:06:26.406Z,178.13
2019-02-19T01:08:56.628Z,178.43
2019-02-19T01:11:27.189Z,173.40
2019-02-19T01:13:57.600Z,174.30
2019-02-19T01:16:28.694Z,173.33
2019-02-19T01:18:59.357Z,168.73
2019-02-19T01:21:29.611Z,174.67
2019-02-19T01:23:59.879Z,171.33
2019-02-19T01:26:30.613Z,172.80
2019-02-19T01:29:00.993Z,183.40
2019-02-19T01:31:32.945Z,174.37
2019-02-19T01:34:03.203Z,170.93
2019-02-19T01:36:33.551Z,185.83
2019-02-19T01:39:05.711Z,177.43
2019-02-19T01:41:36.227Z,167.63
2019-02-19T01:44:07.981Z,181.87
2019-02-19T01:46:38.229Z,173.00
2019-02-19T01:49:09.215Z,173.30
2019-02-19T01:51:39.461Z,180.83
2019-02-19T01:54:10.109Z,173.17
2019-02-19T01:56:40.373Z,163.50
2019-02-19T01:59:10.627Z,172.97
2019-02-19T02:01:41.647Z,166.53
2019-02-19T02:04:12.769Z,170.37
2019-02-19T02:06:43.371Z,168.70
2019-02-19T02:09:13.630Z,178.23
2019-02-19T02:11:44.115Z,166.00
2019-02-19T02:14:14.365Z,166.47
2019-02-19T02:16:44.629Z,169.40
2019-02-19T02:19:15.114Z,179.13
2019-02-19T02:21:45.292Z,172.93
2019-02-19T02:24:15.563Z,167.97
2019-02-19T02:26:46.372Z,175.30
2019-02-19T02:29:16.629Z,169.63
2019-02-19T02:31:47.435Z,181.10
2019-02-19T02:34:17.696Z,173.80
2019-02-19T02:36:48.261Z,172.43
2019-02-19T02:39:18.471Z,173.97
2019-02-19T02:41:49.268Z,177.17
2019-02-19T02:44:19.571Z,183.37
2019-02-19T02:46:49.746Z,181.37
2019-02-19T02:49:20.328Z,175.37
2019-02-19T02:51:50.592Z,180.57
2019-02-19T02:54:20.970Z,176.37
2019-02-19T02:56:51.681Z,172.90
2019-02-19T02:59:22.329Z,180.37
2019-02-19T03:01:52.895Z,187.60
2019-02-19T03:04:24.632Z,159.23
2019-02-19T03:07:06.540Z,180.83
2019-02-19T03:09:37.153Z,173.77
2019-02-19T03:12:07.419Z,167.43
2019-02-19T03:14:37.675Z,175.47
2019-02-19T03:17:08.139Z,172.60
2019-02-19T03:19:38.496Z,177.77
2019-02-19T03:22:08.789Z,175.87
2019-02-19T03:24:39.623Z,178.03
2019-02-19T03:27:11.037Z,167.13
2019-02-19T03:29:41.391Z,160.23
2019-02-19T03:32:12.747Z,165.63
2019-02-19T03:34:42.998Z,154.73
2019-02-19T03:37:13.795Z,162.37
2019-02-19T03:39:44.057Z,171.77
2019-02-19T03:42:14.564Z,176.77
2019-02-19T03:44:44.878Z,173.13
2019-02-19T03:47:15.592Z,174.77
2019-02-19T03:49:45.778Z,170.17
2019-02-19T03:52:16.365Z,168.67
2019-02-19T03:54:46.825Z,167.63
2019-02-19T03:57:17.420Z,164.83
2019-02-19T03:59:47.989Z,167.40
2019-02-19T04:02:19.100Z,168.63
2019-02-19T04:04:50.830Z,159.97
2019-02-19T04:07:21.376Z,176.77
2019-02-19T04:09:51.673Z,182.70
2019-02-19T04:12:22.124Z,174.93
2019-02-19T04:14:52.419Z,182.17
2019-02-19T04:17:23.184Z,181.83
2019-02-19T04:19:53.447Z,183.53
2019-02-19T04:22:23.730Z,173.80
2019-02-19T04:24:54.461Z,174.20
2019-02-19T04:27:24.709Z,173.93
2019-02-19T04:29:54.983Z,174.20
2019-02-19T04:32:26.861Z,175.97
2019-02-19T04:34:57.162Z,187.93
2019-02-19T04:37:29.785Z,177.80
2019-02-19T04:39:59.718Z,178.13
2019-02-19T04:42:30.316Z,184.23
2019-02-19T04:45:00.716Z,183.00
2019-02-19T04:47:31.192Z,204.77
2019-02-19T04:50:01.440Z,184.13
2019-02-19T04:52:32.142Z,190.10
2019-02-19T04:55:02.398Z,189.50
2019-02-19T04:57:33.182Z,187.10
2019-02-19T05:00:05.842Z,196.77
2019-02-19T05:02:36.702Z,190.37
2019-02-19T05:05:07.976Z,181.73
2019-02-19T05:07:38.708Z,193.43
2019-02-19T05:10:09.191Z,191.57
2019-02-19T05:12:39.591Z,188.63
2019-02-19T05:15:10.399Z,202.17
2019-02-19T05:17:41.107Z,185.60
2019-02-19T05:20:11.392Z,188.57
2019-02-19T05:22:43.012Z,192.60
2019-02-19T05:25:13.370Z,186.23
2019-02-19T05:27:43.692Z,186.93
2019-02-19T05:30:14.374Z,197.97
2019-02-19T05:32:44.975Z,187.57
2019-02-19T05:35:15.757Z,189.37
2019-02-19T05:37:46.047Z,195.13
2019-02-19T05:40:16.790Z,189.73
2019-02-19T05:42:47.042Z,198.47
2019-02-19T05:45:17.509Z,199.13
2019-02-19T05:47:47.769Z,192.10
2019-02-19T05:50:18.585Z,190.30
2019-02-19T05:52:48.884Z,201.57
2019-02-19T05:55:19.411Z,186.30
2019-02-19T05:57:49.797Z,180.87
2019-02-19T06:00:20.062Z,192.17
2019-02-19T06:02:50.769Z,194.20
2019-02-19T06:05:21.983Z,190.30
2019-02-19T06:07:52.595Z,191.90
2019-02-19T06:10:22.841Z,192.27
2019-02-19T06:12:53.675Z,197.53
2019-02-19T06:15:23.957Z,183.27
2019-02-19T06:17:54.425Z,177.33
2019-02-19T06:20:24.646Z,192.13
2019-02-19T06:22:55.475Z,188.73
2019-02-19T06:25:25.766Z,189.30
2019-02-19T06:27:56.229Z,179.67
2019-02-19T06:30:26.479Z,184.07
2019-02-19T06:32:57.580Z,182.93
2019-02-19T06:35:27.899Z,184.17
2019-02-19T06:37:58.983Z,183.30
2019-02-19T06:40:30.109Z,181.50
2019-02-19T06:43:00.644Z,165.23
2019-02-19T06:45:30.901Z,172.50
2019-02-19T06:48:01.507Z,171.27
2019-02-19T06:50:31.914Z,168.20
2019-02-19T06:53:02.164Z,170.33
2019-02-19T06:55:32.650Z,164.53
2019-02-19T06:58:02.885Z,166.50
2019-02-19T07:00:33.402Z,162.03
2019-02-19T07:03:11.647Z,175.87
2019-02-19T07:05:43.171Z,159.80
2019-02-19T07:08:13.523Z,163.87
2019-02-19T07:10:43.853Z,153.70
2019-02-19T07:13:14.182Z,160.40
2019-02-19T07:15:44.430Z,154.60
2019-02-19T07:18:14.964Z,157.37
2019-02-19T07:20:45.357Z,152.93
2019-02-19T07:23:15.559Z,164.03
2019-02-19T07:25:46.703Z,147.17
2019-02-19T07:28:16.946Z,144.17
2019-02-19T07:30:47.757Z,140.97
2019-02-19T07:33:18.464Z,151.50
2019-02-19T07:35:48.714Z,142.83
2019-02-19T07:38:19.384Z,137.70
2019-02-19T07:40:49.652Z,129.97
2019-02-19T07:43:20.078Z,143.53
2019-02-19T07:45:52.170Z,131.03
2019-02-19T07:48:22.380Z,128.33
2019-02-19T07:50:52.670Z,139.73
2019-02-19T07:53:23.222Z,130.63
2019-02-19T07:55:53.462Z,122.43
2019-02-19T07:58:24.194Z,132.17
2019-02-19T08:00:54.438Z,130.07
2019-02-19T08:03:25.873Z,125.83
2019-02-19T08:05:57.200Z,120.77
2019-02-19T08:08:28.554Z,123.07
2019-02-19T08:10:58.988Z,117.53
2019-02-19T08:13:29.494Z,114.30
2019-02-19T08:15:59.778Z,117.13
2019-02-19T08:18:30.250Z,114.53
2019-02-19T08:21:00.535Z,115.93
2019-02-19T08:23:31.020Z,109.80
2019-02-19T08:26:01.290Z,114.67
2019-02-19T08:28:32.538Z,100.00
2019-02-19T08:31:02.991Z,113.10
2019-02-19T08:33:33.895Z,116.43
2019-02-19T08:36:04.405Z,105.63
2019-02-19T08:38:34.894Z,113.13
2019-02-19T08:41:05.147Z,109.57
2019-02-19T08:43:35.631Z,107.27
2019-02-19T08:46:05.787Z,105.30
2019-02-19T08:48:36.312Z,98.63
2019-02-19T08:51:06.535Z,105.27
2019-02-19T08:53:37.076Z,92.17
2019-02-19T08:56:07.312Z,93.80
2019-02-19T08:58:40.296Z,95.67
2019-02-19T09:01:10.550Z,98.87
2019-02-19T09:03:41.310Z,80.67
2019-02-19T09:06:12.219Z,80.23
2019-02-19T09:08:42.690Z,84.43
2019-02-19T09:11:12.906Z,79.10
2019-02-19T09:13:43.436Z,88.30
2019-02-19T09:16:13.720Z,75.57
2019-02-19T09:18:44.477Z,75.00
2019-02-19T09:21:14.766Z,74.23
2019-02-19T09:23:45.301Z,70.67
2019-02-19T09:26:17.407Z,77.10
2019-02-19T09:28:49.444Z,74.83
2019-02-19T09:31:37.879Z,73.07
2019-02-19T09:34:08.586Z,73.67
2019-02-19T09:36:39.381Z,70.83
2019-02-19T09:39:09.927Z,68.20
2019-02-19T09:41:40.776Z,68.87
2019-02-19T09:44:11.294Z,71.20
2019-02-19T09:46:41.538Z,67.10
2019-02-19T09:49:12.053Z,62.37
2019-02-19T09:51:42.345Z,64.97
2019-02-19T09:54:12.596Z,60.97
2019-02-19T09:56:43.303Z,66.67
2019-02-19T09:59:13.456Z,60.67
2019-02-19T10:01:43.854Z,61.43
2019-02-19T10:04:14.104Z,62.37
2019-02-19T10:06:45.281Z,61.27
2019-02-19T10:09:15.567Z,59.70
2019-02-19T10:11:46.174Z,57.13
2019-02-19T10:14:16.486Z,59.37
2019-02-19T10:16:46.737Z,62.87
2019-02-19T10:19:17.273Z,56.73
2019-02-19T10:21:47.538Z,54.73
2019-02-19T10:24:17.753Z,56.07
2019-02-19T10:26:49.644Z,54.67
2019-02-19T10:29:20.079Z,55.80
2019-02-19T10:31:50.907Z,52.87
2019-02-19T10:34:21.465Z,53.63
2019-02-19T10:36:53.011Z,45.93
2019-02-19T10:39:23.199Z,49.93
2019-02-19T10:41:53.783Z,54.67
2019-02-19T10:44:24.075Z,45.13
2019-02-19T10:46:54.831Z,50.67
2019-02-19T10:49:25.365Z,52.70
2019-02-19T10:51:55.864Z,51.73
2019-02-19T10:54:26.130Z,49.63
2019-02-19T10:56:56.731Z,49.80
2019-02-19T10:59:27.055Z,45.60
2019-02-19T11:01:58.007Z,48.80
2019-02-19T11:04:28.282Z,46.80
2019-02-19T11:07:00.291Z,48.30
2019-02-19T11:09:30.542Z,51.13
2019-02-19T11:12:01.338Z,47.13
2019-02-19T11:14:31.670Z,49.07
2019-02-19T11:17:02.153Z,47.60
2019-02-19T11:19:32.402Z,46.80
2019-02-19T11:22:03.151Z,46.03
2019-02-19T11:24:33.784Z,46.17
2019-02-19T11:27:04.514Z,41.93
2019-02-19T11:29:34.806Z,48.50
2019-02-19T11:32:05.293Z,44.13
2019-02-19T11:34:35.551Z,42.57
2019-02-19T11:37:06.334Z,39.73
2019-02-19T11:39:36.658Z,41.57
2019-02-19T11:42:07.078Z,41.40
2019-02-19T11:44:37.430Z,47.23
2019-02-19T11:47:07.888Z,42.67
2019-02-19T11:49:38.157Z,43.33
2019-02-19T11:52:08.513Z,45.77
2019-02-19T11:54:38.814Z,46.43
2019-02-19T11:57:09.336Z,45.77
2019-02-19T11:59:39.588Z,41.90
2019-02-19T12:02:14.148Z,48.17
2019-02-19T12:04:44.386Z,46.33
2019-02-19T12:07:16.189Z,40.00
2019-02-19T12:09:46.451Z,46.93
2019-02-19T12:12:17.122Z,47.93
2019-02-19T12:14:47.376Z,47.17
2019-02-19T12:17:17.862Z,47.30
2019-02-19T12:19:48.250Z,46.60
2019-02-19T12:22:18.811Z,39.87
2019-02-19T12:24:49.182Z,44.07
2019-02-19T12:27:19.682Z,43.63
2019-02-19T12:29:50.050Z,47.27
2019-02-19T12:32:20.728Z,45.50
2019-02-19T12:34:51.039Z,42.53
2019-02-19T12:37:22.413Z,41.50
2019-02-19T12:39:52.686Z,45.30
2019-02-19T12:42:23.148Z,43.27
2019-02-19T12:44:53.487Z,41.90
2019-02-19T12:47:24.216Z,39.13
2019-02-19T12:49:54.530Z,41.43
2019-02-19T12:52:24.998Z,41.60
2019-02-19T12:54:55.251Z,45.00
2019-02-19T12:57:25.547Z,39.13
2019-02-19T12:59:56.742Z,38.47
2019-02-19T13:02:27.249Z,41.07
2019-02-19T13:04:57.915Z,40.97
2019-02-19T13:07:29.275Z,35.23
2019-02-19T13:10:01.219Z,41.60
2019-02-19T13:12:31.653Z,40.23
2019-02-19T13:15:02.201Z,35.70
2019-02-19T13:17:34.067Z,38.40
2019-02-19T13:20:04.839Z,36.57
2019-02-19T13:22:35.109Z,36.17
2019-02-19T13:25:06.155Z,37.50
2019-02-19T13:27:36.453Z,39.30
2019-02-19T13:30:10.475Z,36.70
2019-02-19T13:32:40.774Z,40.00
2019-02-19T13:35:12.280Z,44.10
2019-02-19T13:37:43.238Z,37.90
2019-02-19T13:40:14.185Z,39.00
2019-02-19T13:42:44.470Z,36.43
2019-02-19T13:45:15.339Z,45.80
2019-02-19T13:47:46.892Z,43.90
2019-02-19T13:50:19.470Z,38.37
2019-02-19T13:53:14.733Z,43.67
2019-02-19T13:55:48.731Z,39.90
2019-02-19T13:58:18.959Z,40.87
2019-02-19T14:00:49.980Z,41.20
2019-02-19T14:03:20.249Z,40.27
2019-02-19T14:05:50.527Z,41.10
2019-02-19T14:08:22.007Z,43.87
2019-02-19T14:10:52.239Z,38.97
2019-02-19T14:13:22.689Z,41.60
2019-02-19T14:16:11.899Z,39.67
2019-02-19T14:18:56.631Z,43.23
2019-02-19T14:21:54.676Z,39.03
2019-02-19T14:24:56.429Z,37.50
2019-02-19T14:27:44.535Z,47.87
2019-02-19T14:30:23.292Z,43.37
2019-02-19T14:33:30.833Z,44.20
2019-02-19T14:36:10.266Z,43.53
2019-02-19T14:39:00.087Z,41.47
2019-02-19T14:41:49.349Z,45.23
2019-02-19T14:44:37.397Z,43.20
2019-02-19T14:47:37.449Z,41.30
2019-02-19T14:50:42.189Z,45.27
2019-02-19T14:53:31.853Z,41.53
2019-02-19T14:56:21.135Z,43.13
2019-02-19T14:59:08.829Z,44.87
2019-02-19T15:01:53.150Z,48.80
2019-02-19T15:04:41.044Z,44.13
2019-02-19T15:07:34.573Z,50.67
2019-02-19T15:10:32.073Z,43.57
2019-02-19T15:13:21.294Z,46.20
2019-02-19T15:16:13.986Z,49.40
2019-02-19T15:18:58.169Z,45.63
2019-02-19T15:21:50.976Z,54.30
2019-02-19T15:24:41.382Z,49.50
2019-02-19T15:27:49.181Z,48.17
2019-02-19T15:30:44.391Z,46.87
2019-02-19T15:33:39.914Z,48.20
2019-02-19T15:36:29.108Z,44.07
2019-02-19T15:39:21.934Z,48.17
2019-02-19T15:42:10.976Z,64.63
2019-02-19T15:44:53.692Z,49.80
2019-02-19T15:47:57.976Z,45.80
2019-02-19T15:50:46.105Z,52.53
2019-02-19T15:53:35.306Z,59.07
2019-02-19T15:56:31.373Z,57.10
2019-02-19T15:59:16.041Z,53.10
2019-02-19T16:01:56.125Z,58.10
2019-02-19T16:04:33.789Z,57.33
2019-02-19T16:07:29.712Z,59.80
2019-02-19T16:10:27.794Z,57.43
2019-02-19T16:13:07.606Z,57.70
2019-02-19T16:16:09.001Z,68.73
2019-02-19T16:19:04.414Z,57.60
2019-02-19T16:21:49.914Z,65.40
2019-02-19T16:24:43.855Z,62.10
2019-02-19T16:27:20.446Z,58.80
2019-02-19T16:30:04.495Z,53.63
2019-02-19T16:33:02.892Z,63.87
2019-02-19T16:35:43.123Z,66.87
2019-02-19T16:38:44.302Z,75.30
2019-02-19T16:41:29.767Z,64.77
2019-02-19T16:44:23.039Z,68.87
2019-02-19T16:47:04.674Z,70.83
2019-02-19T16:49:52.566Z,67.67
2019-02-19T16:52:34.587Z,78.37
2019-02-19T16:55:14.123Z,70.90
2019-02-19T16:57:52.572Z,75.63
2019-02-19T17:00:45.936Z,81.33
2019-02-19T17:03:30.144Z,82.37
2019-02-19T17:06:22.548Z,79.77
2019-02-19T17:09:12.097Z,77.00
2019-02-19T17:12:11.584Z,72.77
2019-02-19T17:15:05.706Z,74.20
2019-02-19T17:17:53.751Z,67.60
2019-02-19T17:20:49.153Z,65.67
2019-02-19T17:23:28.348Z,72.03
2019-02-19T17:26:19.700Z,62.20
2019-02-19T17:29:11.159Z,60.10
2019-02-19T17:31:59.498Z,62.23
2019-02-19T17:34:37.423Z,63.03
2019-02-19T17:37:16.815Z,56.60
2019-02-19T17:40:11.060Z,61.33
2019-02-19T17:42:47.043Z,62.60
2019-02-19T17:45:39.847Z,56.67
2019-02-19T17:48:24.367Z,68.40
2019-02-19T17:51:13.557Z,63.07
2019-02-19T17:53:56.425Z,60.67
2019-02-19T17:56:44.595Z,62.03
2019-02-19T17:59:37.732Z,63.00
2019-02-19T18:02:29.970Z,63.93
2019-02-19T18:05:25.358Z,62.93
2019-02-19T18:08:20.636Z,61.30
2019-02-19T18:11:05.413Z,61.33
2019-02-19T18:13:49.881Z,61.03
2019-02-19T18:16:43.182Z,61.67
2019-02-19T18:19:13.487Z,65.37
2019-02-19T18:21:43.643Z,75.43
2019-02-19T18:24:13.909Z,67.43
2019-02-19T18:26:44.867Z,67.30
2019-02-19T18:29:15.345Z,63.60
2019-02-19T18:31:46.039Z,64.73
2019-02-19T18:34:16.315Z,68.93
2019-02-19T18:36:47.095Z,61.73
2019-02-19T18:39:17.426Z,71.40
2019-02-19T18:41:47.819Z,67.40
2019-02-19T18:44:18.082Z,64.07
2019-02-19T18:46:48.912Z,62.83
2019-02-19T18:49:19.200Z,63.23
2019-02-19T18:51:49.807Z,64.87
2019-02-19T18:54:20.044Z,62.20
2019-02-19T18:56:50.433Z,63.60
2019-02-19T18:59:20.720Z,68.77
2019-02-19T19:01:51.241Z,68.53
2019-02-19T19:04:21.626Z,66.70
2019-02-19T19:06:52.542Z,68.37
2019-02-19T19:09:22.914Z,71.27
2019-02-19T19:11:54.204Z,69.17
2019-02-19T19:14:24.454Z,69.37
2019-02-19T19:16:56.500Z,81.47
2019-02-19T19:19:26.967Z,71.47
2019-02-19T19:21:58.706Z,77.73
2019-02-19T19:24:29.552Z,82.80
2019-02-19T19:27:00.388Z,76.80
2019-02-19T19:29:30.725Z,80.10
2019-02-19T19:32:01.525Z,82.70
2019-02-19T19:34:32.164Z,83.47
2019-02-19T19:37:03.272Z,85.60
2019-02-19T19:39:33.883Z,96.17
2019-02-19T19:42:04.585Z,88.87
2019-02-19T19:44:35.043Z,87.67
2019-02-19T19:47:06.245Z,88.77
2019-02-19T19:49:36.599Z,89.07
2019-02-19T19:52:07.691Z,84.53
2019-02-19T19:54:38.598Z,86.77
2019-02-19T19:57:09.144Z,84.27
2019-02-19T19:59:39.776Z,81.70
2019-02-19T20:02:10.483Z,77.23
2019-02-19T20:04:41.058Z,78.47
2019-02-19T20:07:12.023Z,75.37
2019-02-19T20:09:42.503Z,73.77
2019-02-19T20:12:14.928Z,76.27
2019-02-19T20:14:45.430Z,80.23
2019-02-19T20:17:17.058Z,72.10
2019-02-19T20:19:47.819Z,73.20
2019-02-19T20:22:18.542Z,65.70
2019-02-19T20:24:49.112Z,71.17
2019-02-19T20:27:19.937Z,63.63
2019-02-19T20:29:50.943Z,62.33
2019-02-19T20:32:21.899Z,65.93
2019-02-19T20:34:52.255Z,64.67
2019-02-19T20:37:23.287Z,66.70
2019-02-19T20:39:53.954Z,65.67
2019-02-19T20:42:24.681Z,69.87
2019-02-19T20:44:55.303Z,72.33
2019-02-19T20:47:26.780Z,70.70
2019-02-19T20:49:57.484Z,77.40
2019-02-19T20:52:29.811Z,73.33
2019-02-19T20:55:01.400Z,76.90
2019-02-19T20:57:33.349Z,72.87
2019-02-19T21:00:04.601Z,77.47
2019-02-19T21:02:37.151Z,77.20
2019-02-19T21:05:08.548Z,73.27
2019-02-19T21:07:39.420Z,68.77
2019-02-19T21:10:13.225Z,65.50
2019-02-19T21:12:44.898Z,71.40
2019-02-19T21:15:15.996Z,73.00
2019-02-19T21:17:48.009Z,65.83
2019-02-19T21:20:18.384Z,65.70
2019-02-19T21:22:49.573Z,61.60
2019-02-19T21:25:19.866Z,60.57
2019-02-19T21:27:50.727Z,61.33
2019-02-19T21:30:21.481Z,60.93
2019-02-19T21:32:52.260Z,63.47
2019-02-19T21:35:22.823Z,57.50
2019-02-19T21:37:53.843Z,62.40
2019-02-19T21:40:24.235Z,59.70
2019-02-19T21:42:55.132Z,62.23
2019-02-19T21:45:25.479Z,59.53
2019-02-19T21:47:56.515Z,65.33
2019-02-19T21:50:27.088Z,63.37
2019-02-19T21:52:58.202Z,62.43
2019-02-19T21:55:28.539Z,60.40
2019-02-19T21:57:59.738Z,64.10
2019-02-19T22:00:30.312Z,65.93
2019-02-19T22:03:01.513Z,66.60
2019-02-19T22:05:32.206Z,64.27
2019-02-19T22:08:03.099Z,63.50
2019-02-19T22:10:33.744Z,60.47
2019-02-19T22:13:04.339Z,58.53
2019-02-19T22:15:34.628Z,64.63
2019-02-19T22:18:07.763Z,63.50
2019-02-19T22:20:57.108Z,64.77
2019-02-19T22:23:27.726Z,62.80
2019-02-19T22:25:58.093Z,59.23
2019-02-19T22:28:29.847Z,59.63
2019-02-19T22:31:00.203Z,62.43
2019-02-19T22:33:30.711Z,59.60
2019-02-19T22:36:01.119Z,55.53
2019-02-19T22:38:31.963Z,60.07
2019-02-19T22:41:02.288Z,54.43
2019-02-19T22:43:33.015Z,53.70
2019-02-19T22:46:03.290Z,62.03
2019-02-19T22:48:34.090Z,61.60
2019-02-19T22:51:04.413Z,64.23
2019-02-19T22:53:57.024Z,66.27
2019-02-19T22:56:36.477Z,60.13
2019-02-19T22:59:07.255Z,60.83
2019-02-19T23:01:41.230Z,67.80
2019-02-19T23:04:12.288Z,72.93
2019-02-19T23:06:42.713Z,67.00
2019-02-19T23:09:13.326Z,72.30
2019-02-19T23:11:43.548Z,71.57
2019-02-19T23:14:14.086Z,65.73
2019-02-19T23:16:44.607Z,71.93
2019-02-19T23:19:16.388Z,70.23
2019-02-19T23:21:46.713Z,65.90
2019-02-19T23:24:17.537Z,63.07
2019-02-19T23:26:49.540Z,68.13
2019-02-19T23:29:20.034Z,64.77
2019-02-19T23:31:50.532Z,71.37
2019-02-19T23:34:20.778Z,64.03
2019-02-19T23:36:56.946Z,63.63
2019-02-19T23:39:27.779Z,57.50
2019-02-19T23:41:58.096Z,59.27
2019-02-19T23:44:28.626Z,58.73
2019-02-19T23:46:58.956Z,57.13
2019-02-19T23:49:29.788Z,61.57
2019-02-19T23:52:00.124Z,57.57
2019-02-19T23:54:32.078Z,55.57
2019-02-19T23:57:02.368Z,57.00
2019-02-19T23:59:32.630Z,52.63
